Time;durP1;ratioP1;P1;durP2;ratioP2;P2;SDS_P1;SDS_P2;PMS_P1;PMS_P2;Temp;Humidity;BMP_temperature;BMP_pressure;BME280_temperature;BME280_humidity;BME280_pressure;Samples;Min_cycle;Max_cycle;Signal;HPM_P1;HPM_P2
2023/06/07 00:02:11;;;;;;;5.38;3.97;;;18.00;99.90;;;;;;5016801;28;20036;-74
2023/06/07 00:04:45;;;;;;;8.35;4.03;;;18.00;99.90;;;;;;4999087;28;21180;-74
2023/06/07 00:07:13;;;;;;;6.90;4.18;;;18.00;99.90;;;;;;5005544;28;20533;-74
2023/06/07 00:09:41;;;;;;;6.07;4.15;;;18.00;99.90;;;;;;5023319;28;22450;-74
2023/06/07 00:12:08;;;;;;;6.78;4.25;;;18.00;99.90;;;;;;4990882;28;22506;-74
2023/06/07 00:14:36;;;;;;;8.52;4.60;;;18.00;99.90;;;;;;5000630;28;20095;-74
2023/06/07 00:17:03;;;;;;;7.25;4.55;;;17.90;99.90;;;;;;5020771;28;20041;-74
2023/06/07 00:19:30;;;;;;;8.85;4.05;;;17.90;99.90;;;;;;5028938;28;20843;-74
2023/06/07 00:21:57;;;;;;;7.22;3.83;;;18.00;99.90;;;;;;5025012;28;20543;-74
2023/06/07 00:24:25;;;;;;;7.07;4.53;;;17.90;99.90;;;;;;5022838;28;20076;-74
2023/06/07 00:26:52;;;;;;;8.30;4.57;;;18.00;99.90;;;;;;5037225;28;20507;-75
2023/06/07 00:29:19;;;;;;;7.07;4.20;;;18.00;99.90;;;;;;5038984;28;22967;-75
2023/06/07 00:31:50;;;;;;;6.15;3.65;;;17.90;99.90;;;;;;5047362;28;20200;-74
2023/06/07 00:34:17;;;;;;;6.88;3.75;;;17.90;99.90;;;;;;5033533;28;20055;-74
2023/06/07 00:36:46;;;;;;;7.60;4.15;;;17.90;99.90;;;;;;5019202;28;22305;-75
2023/06/07 00:39:13;;;;;;;8.05;4.47;;;17.90;99.90;;;;;;5023398;28;20726;-74
2023/06/07 00:41:40;;;;;;;6.68;3.85;;;17.90;99.90;;;;;;5009883;28;20060;-74
2023/06/07 00:44:07;;;;;;;4.72;3.33;;;17.90;99.90;;;;;;5016495;28;20068;-75
2023/06/07 00:46:35;;;;;;;5.25;3.45;;;17.90;99.90;;;;;;5027055;28;21656;-75
2023/06/07 00:49:03;;;;;;;5.75;3.85;;;17.90;99.90;;;;;;5016244;28;20047;-75
2023/06/07 00:51:31;;;;;;;6.90;3.67;;;17.90;99.90;;;;;;5025362;28;20041;-75
2023/06/07 00:54:03;;;;;;;5.38;3.00;;;17.90;99.90;;;;;;5041342;28;20047;-75
2023/06/07 00:56:30;;;;;;;6.40;3.30;;;17.90;99.90;;;;;;5028852;28;20056;-74
2023/06/07 00:58:57;;;;;;;11.35;4.28;;;17.80;99.90;;;;;;5020123;28;20052;-75
2023/06/07 01:01:25;;;;;;;6.80;3.58;;;17.80;99.90;;;;;;5030325;28;20040;-75
2023/06/07 01:03:53;;;;;;;4.88;3.70;;;17.80;99.90;;;;;;5018825;28;20059;-75
2023/06/07 01:06:24;;;;;;;6.00;3.45;;;17.80;99.90;;;;;;5021275;28;20101;-75
2023/06/07 01:08:51;;;;;;;6.30;3.95;;;17.80;99.90;;;;;;5029751;28;20055;-75
2023/06/07 01:11:21;;;;;;;8.88;5.22;;;17.70;99.90;;;;;;5014619;28;20132;-75
2023/06/07 01:13:49;;;;;;;6.78;3.72;;;17.70;99.90;;;;;;5012782;28;20044;-75
2023/06/07 01:16:16;;;;;;;9.00;3.67;;;17.80;99.90;;;;;;5015548;28;20098;-75
2023/06/07 01:18:46;;;;;;;6.35;3.95;;;17.80;99.90;;;;;;5023008;28;20403;-74
2023/06/07 01:21:19;;;;;;;4.82;3.53;;;17.80;99.90;;;;;;5029840;28;20396;-75
2023/06/07 01:23:49;;;;;;;5.47;3.28;;;17.80;99.90;;;;;;5030880;28;20185;-75
2023/06/07 01:26:18;;;;;;;4.63;3.53;;;17.70;99.90;;;;;;5035067;28;20163;-75
2023/06/07 01:28:46;;;;;;;10.32;4.63;;;17.70;99.90;;;;;;5000568;28;20052;-75
2023/06/07 01:31:15;;;;;;;7.65;4.10;;;17.80;99.90;;;;;;5052040;28;20039;-75
2023/06/07 01:33:43;;;;;;;5.53;4.18;;;17.70;99.90;;;;;;5032362;28;20719;-75
2023/06/07 01:36:13;;;;;;;8.18;4.22;;;17.70;99.90;;;;;;5021912;28;20235;-75
2023/06/07 01:38:45;;;;;;;6.82;3.85;;;17.70;99.90;;;;;;5004241;28;20049;-75
2023/06/07 01:41:15;;;;;;;7.53;4.03;;;17.70;99.90;;;;;;5016661;28;20048;-75
2023/06/07 01:43:43;;;;;;;7.45;3.63;;;17.70;99.90;;;;;;5017786;28;20187;-75
2023/06/07 01:46:11;;;;;;;7.20;4.20;;;17.70;99.90;;;;;;5033692;28;20098;-75
2023/06/07 01:48:39;;;;;;;7.90;4.10;;;17.70;99.90;;;;;;5030268;28;20972;-75
2023/06/07 01:51:06;;;;;;;6.32;4.20;;;17.70;99.90;;;;;;5020412;28;20589;-75
2023/06/07 01:53:34;;;;;;;5.75;4.43;;;17.60;99.90;;;;;;4998175;28;20051;-75
2023/06/07 01:56:25;;;;;;;6.28;3.83;;;17.60;99.90;;;;;;5029638;28;20078;-75
2023/06/07 01:59:10;;;;;;;7.22;4.03;;;17.60;99.90;;;;;;5021620;28;20442;-74
2023/06/07 02:01:49;;;;;;;4.30;3.13;;;17.60;99.90;;;;;;5018069;28;20140;-75
2023/06/07 02:04:20;;;;;;;7.38;3.67;;;17.60;99.90;;;;;;5017955;28;20055;-75
2023/06/07 02:06:50;;;;;;;6.35;4.00;;;17.60;99.90;;;;;;5014703;28;20077;-75
2023/06/07 02:09:20;;;;;;;5.57;3.88;;;17.50;99.90;;;;;;5017296;28;20044;-75
2023/06/07 02:11:48;;;;;;;6.07;3.28;;;17.50;99.90;;;;;;5019983;28;20055;-75
2023/06/07 02:14:16;;;;;;;7.63;3.65;;;17.50;99.90;;;;;;5027694;28;22597;-75
2023/06/07 02:16:43;;;;;;;5.57;3.40;;;17.50;99.90;;;;;;5036433;28;20419;-75
2023/06/07 02:19:16;;;;;;;6.25;3.55;;;17.50;99.90;;;;;;5024135;28;22398;-75
2023/06/07 02:21:50;;;;;;;6.75;4.18;;;17.50;99.90;;;;;;5036548;28;20435;-75
2023/06/07 02:24:19;;;;;;;6.82;3.90;;;17.50;99.90;;;;;;5018538;28;20133;-75
2023/06/07 02:26:46;;;;;;;5.63;2.70;;;17.50;99.90;;;;;;5036638;28;20831;-75
2023/06/07 02:29:14;;;;;;;5.70;3.17;;;17.50;99.90;;;;;;5005156;28;20862;-75
2023/06/07 02:31:41;;;;;;;7.78;3.58;;;17.40;99.90;;;;;;5035731;28;20044;-75
2023/06/07 02:34:09;;;;;;;5.20;3.60;;;17.30;99.90;;;;;;5058527;28;20048;-75
2023/06/07 02:36:40;;;;;;;8.13;3.65;;;17.40;99.90;;;;;;5022104;28;20049;-75
2023/06/07 02:39:08;;;;;;;13.32;3.47;;;17.00;99.90;;;;;;5022841;28;20141;-75
2023/06/07 02:41:36;;;;;;;5.32;3.28;;;17.40;99.90;;;;;;5035896;28;20044;-75
2023/06/07 02:44:03;;;;;;;5.57;3.45;;;17.40;99.90;;;;;;5021755;28;20087;-75
2023/06/07 02:46:31;;;;;;;6.55;3.10;;;17.30;99.90;;;;;;5009031;28;20052;-75
2023/06/07 02:48:58;;;;;;;5.80;3.35;;;17.40;99.90;;;;;;5034177;28;20454;-75
2023/06/07 02:51:26;;;;;;;7.05;3.58;;;17.40;99.90;;;;;;5020858;28;20153;-75
2023/06/07 02:53:54;;;;;;;7.07;4.05;;;17.20;99.90;;;;;;5026313;28;20415;-75
2023/06/07 02:56:24;;;;;;;5.80;3.55;;;17.20;99.90;;;;;;5009170;28;20171;-75
2023/06/07 02:58:51;;;;;;;5.00;3.33;;;17.20;99.90;;;;;;5031863;28;20434;-75
2023/06/07 03:01:21;;;;;;;7.47;3.55;;;17.30;99.90;;;;;;5034515;28;20071;-75
2023/06/07 03:03:53;;;;;;;9.57;3.97;;;17.40;99.90;;;;;;5028298;28;20046;-75
2023/06/07 03:06:20;;;;;;;6.13;3.38;;;17.30;99.90;;;;;;5034054;28;20511;-75
2023/06/07 03:08:48;;;;;;;6.93;4.30;;;16.80;99.90;;;;;;5044978;28;20173;-75
2023/06/07 03:11:19;;;;;;;8.23;3.67;;;17.30;99.90;;;;;;5025048;28;21052;-75
2023/06/07 03:13:49;;;;;;;6.20;3.35;;;17.30;99.90;;;;;;5031537;28;20131;-74
2023/06/07 03:16:22;;;;;;;5.00;3.30;;;17.30;99.90;;;;;;5016959;28;20696;-75
2023/06/07 03:18:55;;;;;;;5.70;2.75;;;17.20;99.90;;;;;;5034751;28;20443;-75
2023/06/07 03:21:24;;;;;;;6.78;3.10;;;17.10;99.90;;;;;;5011750;28;20887;-75
2023/06/07 03:23:53;;;;;;;7.20;3.28;;;17.20;99.90;;;;;;5008132;28;20431;-75
2023/06/07 03:26:21;;;;;;;5.28;3.17;;;17.10;99.90;;;;;;5035268;28;22827;-75
2023/06/07 03:28:50;;;;;;;7.45;3.03;;;17.20;99.90;;;;;;5004946;28;20054;-74
2023/06/07 03:31:18;;;;;;;6.68;2.58;;;17.10;99.90;;;;;;5026208;28;20115;-74
2023/06/07 03:33:54;;;;;;;7.88;3.22;;;17.10;99.90;;;;;;5024998;28;20048;-75
2023/06/07 03:36:24;;;;;;;5.43;3.00;;;16.60;99.90;;;;;;5025396;28;20041;-74
2023/06/07 03:38:53;;;;;;;5.20;2.63;;;17.10;99.90;;;;;;5055522;28;20044;-75
2023/06/07 03:41:21;;;;;;;5.53;2.83;;;17.10;99.90;;;;;;5012060;28;20169;-75
2023/06/07 03:43:50;;;;;;;3.83;2.60;;;17.10;99.90;;;;;;5018528;28;20044;-75
2023/06/07 03:46:18;;;;;;;7.28;2.88;;;17.20;99.90;;;;;;5040617;28;20410;-75
2023/06/07 03:48:45;;;;;;;8.20;3.10;;;17.20;99.90;;;;;;5021351;28;20048;-74
2023/06/07 03:51:15;;;;;;;5.63;2.83;;;17.20;99.90;;;;;;5017573;28;20523;-74
2023/06/07 03:53:42;;;;;;;6.57;2.55;;;17.20;99.90;;;;;;5036652;28;20040;-74
2023/06/07 03:56:09;;;;;;;4.57;3.25;;;17.30;99.90;;;;;;5016990;28;20048;-74
2023/06/07 03:58:38;;;;;;;5.88;3.50;;;17.20;99.90;;;;;;5026549;28;20059;-74
2023/06/07 04:01:10;;;;;;;6.53;3.38;;;17.20;99.90;;;;;;5027284;28;20051;-74
2023/06/07 04:03:39;;;;;;;6.13;3.40;;;17.30;99.90;;;;;;5030468;28;20105;-74
2023/06/07 04:06:08;;;;;;;6.40;3.08;;;17.20;99.90;;;;;;5021792;28;20048;-75
2023/06/07 04:08:37;;;;;;;5.00;3.13;;;17.30;99.90;;;;;;5040427;28;20691;-75
2023/06/07 04:11:05;;;;;;;5.53;3.10;;;17.40;99.90;;;;;;5011554;28;20076;-74
2023/06/07 04:13:32;;;;;;;6.57;3.10;;;16.60;99.90;;;;;;5028231;28;20055;-75
2023/06/07 04:16:00;;;;;;;5.35;2.83;;;17.40;99.90;;;;;;5033437;28;20048;-75
2023/06/07 04:18:27;;;;;;;6.82;3.38;;;17.40;99.90;;;;;;5021720;28;20062;-74
2023/06/07 04:20:54;;;;;;;4.32;3.10;;;17.50;99.90;;;;;;5030645;28;20052;-75
2023/06/07 04:23:22;;;;;;;7.03;2.80;;;17.20;99.90;;;;;;5018390;28;20053;-75
2023/06/07 04:25:53;;;;;;;8.13;3.10;;;17.50;99.90;;;;;;5017297;28;20053;-75
2023/06/07 04:28:23;;;;;;;6.22;2.70;;;17.50;99.90;;;;;;5014951;28;22300;-75
2023/06/07 04:30:57;;;;;;;6.13;3.15;;;17.50;99.90;;;;;;5049061;28;20710;-74
2023/06/07 04:33:27;;;;;;;5.57;3.05;;;17.50;99.90;;;;;;5020857;28;20057;-74
2023/06/07 04:35:57;;;;;;;5.10;2.63;;;17.50;99.90;;;;;;5028355;28;20046;-75
2023/06/07 04:38:25;;;;;;;5.72;2.60;;;17.50;99.90;;;;;;5000823;28;20056;-75
2023/06/07 04:41:00;;;;;;;5.72;2.92;;;17.50;99.90;;;;;;5007753;28;22430;-74
2023/06/07 04:43:36;;;;;;;4.05;2.22;;;17.40;99.90;;;;;;5017167;28;20067;-75
2023/06/07 04:46:06;;;;;;;9.95;3.03;;;17.40;99.90;;;;;;5027361;28;20045;-75
2023/06/07 04:48:40;;;;;;;4.72;2.60;;;17.50;99.90;;;;;;5016235;28;20129;-75
2023/06/07 04:51:10;;;;;;;7.95;2.97;;;17.50;99.90;;;;;;5020863;28;20054;-75
2023/06/07 04:53:42;;;;;;;5.72;2.78;;;17.40;99.90;;;;;;5024063;28;20144;-75
2023/06/07 04:56:14;;;;;;;5.20;3.22;;;17.50;99.90;;;;;;5029813;28;20060;-75
2023/06/07 04:58:42;;;;;;;4.80;2.65;;;17.50;99.90;;;;;;5028524;28;20059;-75
2023/06/07 05:01:13;;;;;;;5.88;2.60;;;17.50;99.90;;;;;;5033898;28;20092;-75
2023/06/07 05:03:42;;;;;;;6.82;2.75;;;17.50;99.90;;;;;;5020169;28;20049;-75
2023/06/07 05:06:12;;;;;;;6.45;2.85;;;17.50;99.90;;;;;;5034109;28;20697;-75
2023/06/07 05:08:40;;;;;;;4.22;2.70;;;17.50;99.90;;;;;;5030481;28;20457;-75
2023/06/07 05:11:07;;;;;;;5.28;3.08;;;17.70;99.90;;;;;;5002214;28;22305;-76
2023/06/07 05:13:34;;;;;;;7.28;2.75;;;17.60;99.90;;;;;;5030077;28;20051;-75
2023/06/07 05:16:02;;;;;;;3.97;2.38;;;17.70;99.90;;;;;;5012190;28;20048;-76
2023/06/07 05:18:31;;;;;;;4.35;2.80;;;17.70;99.90;;;;;;5029003;28;20044;-76
2023/06/07 05:21:00;;;;;;;5.82;3.13;;;17.80;99.90;;;;;;5021199;28;22971;-76
2023/06/07 05:23:27;;;;;;;7.10;3.60;;;17.80;99.90;;;;;;5023915;28;20629;-75
2023/06/07 05:25:56;;;;;;;6.95;3.10;;;17.80;99.90;;;;;;4999221;28;20092;-75
2023/06/07 05:28:23;;;;;;;5.25;3.22;;;17.80;99.90;;;;;;5016952;28;20056;-75
2023/06/07 05:30:55;;;;;;;5.00;2.53;;;17.80;99.90;;;;;;5023533;28;20057;-75
2023/06/07 05:33:23;;;;;;;5.95;2.70;;;17.80;99.90;;;;;;5017474;28;22073;-76
2023/06/07 05:35:50;;;;;;;7.10;2.90;;;17.80;99.90;;;;;;5034475;28;20055;-78
2023/06/07 05:38:18;;;;;;;4.57;2.70;;;17.90;99.90;;;;;;5053022;28;20049;-77
2023/06/07 05:40:46;;;;;;;5.82;3.13;;;17.90;99.90;;;;;;5068326;28;20055;-78
2023/06/07 05:43:13;;;;;;;6.40;3.22;;;17.90;99.90;;;;;;5055175;28;20114;-77
2023/06/07 05:45:41;;;;;;;9.98;3.35;;;17.80;99.90;;;;;;5057042;28;22322;-78
2023/06/07 05:48:10;;;;;;;7.45;3.30;;;17.80;99.90;;;;;;5058280;28;20063;-77
2023/06/07 05:50:38;;;;;;;4.38;2.72;;;17.80;99.90;;;;;;5019732;28;20048;-77
2023/06/07 05:53:06;;;;;;;4.43;2.80;;;17.80;99.90;;;;;;5031458;28;20163;-77
2023/06/07 05:55:33;;;;;;;7.00;2.70;;;17.80;99.90;;;;;;5031229;28;20048;-77
2023/06/07 05:58:00;;;;;;;4.30;2.47;;;17.90;99.90;;;;;;5029675;28;20637;-77
2023/06/07 06:00:28;;;;;;;6.30;3.45;;;17.90;99.90;;;;;;5044255;28;20052;-77
2023/06/07 06:02:56;;;;;;;6.93;2.97;;;18.00;99.90;;;;;;5034543;28;20052;-78
2023/06/07 06:05:27;;;;;;;7.82;3.05;;;18.10;99.90;;;;;;5032643;28;20272;-78
2023/06/07 06:07:57;;;;;;;6.50;3.10;;;18.10;99.90;;;;;;5016511;28;20526;-78
2023/06/07 06:10:25;;;;;;;8.35;3.25;;;18.10;99.90;;;;;;5021274;28;20914;-78
2023/06/07 06:12:52;;;;;;;6.43;3.40;;;18.20;99.90;;;;;;5037832;28;22534;-78
2023/06/07 06:15:20;;;;;;;6.20;3.60;;;18.10;99.90;;;;;;5049109;28;20041;-78
2023/06/07 06:17:49;;;;;;;5.85;2.55;;;18.20;99.90;;;;;;5028758;28;22310;-78
2023/06/07 06:20:17;;;;;;;6.18;2.95;;;18.30;99.90;;;;;;5046427;28;20767;-78
2023/06/07 06:22:44;;;;;;;6.93;3.72;;;18.30;99.90;;;;;;5048796;28;20064;-78
2023/06/07 06:25:13;;;;;;;6.88;2.63;;;18.30;99.90;;;;;;5011759;28;20063;-77
2023/06/07 06:27:41;;;;;;;4.50;2.97;;;18.40;99.90;;;;;;5037573;28;20714;-79
2023/06/07 06:30:08;;;;;;;5.10;2.58;;;18.50;99.90;;;;;;5019872;28;20110;-79
2023/06/07 06:32:36;;;;;;;9.77;2.72;;;18.40;99.90;;;;;;5022738;28;20048;-79
2023/06/07 06:35:03;;;;;;;5.88;2.42;;;18.50;99.90;;;;;;5020857;28;20368;-79
2023/06/07 06:37:31;;;;;;;4.07;1.92;;;18.40;99.90;;;;;;5031990;28;20062;-79
2023/06/07 06:39:58;;;;;;;3.83;2.13;;;18.50;99.90;;;;;;5017145;28;20115;-79
2023/06/07 06:42:25;;;;;;;5.25;2.15;;;18.60;99.90;;;;;;5007029;28;20052;-79
2023/06/07 06:45:10;;;;;;;3.45;1.88;;;18.50;99.90;;;;;;5004178;28;20776;-78
2023/06/07 06:47:41;;;;;;;4.30;2.53;;;18.60;99.90;;;;;;5020093;28;22090;-79
2023/06/07 06:50:13;;;;;;;5.03;2.40;;;18.70;99.90;;;;;;5016481;28;20082;-79
2023/06/07 06:52:58;;;;;;;4.75;2.25;;;18.80;99.90;;;;;;5023682;28;20040;-79
2023/06/07 06:55:26;;;;;;;4.25;3.00;;;18.90;99.90;;;;;;5018761;28;20458;-79
2023/06/07 06:57:53;;;;;;;6.50;3.92;;;18.80;99.90;;;;;;5047073;28;20044;-80
2023/06/07 07:00:23;;;;;;;5.45;2.40;;;18.90;99.90;;;;;;5034727;28;20063;-79
2023/06/07 07:02:51;;;;;;;4.13;2.15;;;19.00;99.90;;;;;;5029177;28;20214;-78
2023/06/07 07:05:18;;;;;;;5.07;2.05;;;19.10;99.90;;;;;;5017137;28;20131;-79
2023/06/07 07:07:46;;;;;;;2.88;2.08;;;19.30;99.90;;;;;;5013970;28;20060;-78
2023/06/07 07:10:13;;;;;;;4.80;3.08;;;19.30;99.90;;;;;;5051728;28;20078;-79
2023/06/07 07:12:42;;;;;;;6.90;2.58;;;19.20;99.90;;;;;;5019666;28;20044;-79
2023/06/07 07:15:10;;;;;;;3.88;2.08;;;19.20;99.90;;;;;;5023117;28;20048;-78
2023/06/07 07:17:48;;;;;;;3.92;2.50;;;19.30;99.90;;;;;;5023563;28;20040;-79
2023/06/07 07:20:17;;;;;;;4.07;2.45;;;19.30;99.90;;;;;;5006702;28;20049;-79
2023/06/07 07:22:46;;;;;;;3.72;2.45;;;19.30;99.90;;;;;;5033242;28;20075;-79
2023/06/07 07:25:14;;;;;;;5.95;2.58;;;19.20;99.90;;;;;;5021010;28;20060;-79
2023/06/07 07:27:42;;;;;;;3.72;2.45;;;19.20;99.90;;;;;;5039487;28;20237;-79
2023/06/07 07:30:09;;;;;;;3.72;2.20;;;19.20;99.90;;;;;;5036549;28;20050;-80
2023/06/07 07:32:38;;;;;;;4.45;2.45;;;19.20;99.90;;;;;;5018821;28;20055;-80
2023/06/07 07:35:06;;;;;;;4.53;2.35;;;19.20;99.90;;;;;;5021428;28;20704;-80
2023/06/07 07:37:33;;;;;;;4.18;2.60;;;19.20;99.90;;;;;;5038388;28;20040;-79
2023/06/07 07:40:00;;;;;;;5.65;2.80;;;19.20;99.90;;;;;;5026442;28;20049;-80
2023/06/07 07:42:28;;;;;;;4.97;3.00;;;19.20;99.90;;;;;;5037614;28;20061;-80
2023/06/07 07:44:55;;;;;;;8.02;3.17;;;19.30;99.90;;;;;;5035671;28;20090;-80
2023/06/07 07:47:23;;;;;;;9.80;2.67;;;19.30;99.90;;;;;;5016574;28;22251;-80
2023/06/07 07:49:51;;;;;;;6.75;3.05;;;19.30;99.90;;;;;;5025187;28;20048;-80
2023/06/07 07:52:19;;;;;;;3.65;2.47;;;19.40;99.90;;;;;;5010221;28;20500;-80
2023/06/07 07:54:48;;;;;;;5.38;2.63;;;19.40;99.90;;;;;;5032836;28;20044;-79
2023/06/07 07:57:16;;;;;;;6.55;2.80;;;19.40;99.90;;;;;;5020526;28;22368;-80
2023/06/07 07:59:43;;;;;;;3.28;2.47;;;19.40;99.90;;;;;;5034591;28;20052;-80
2023/06/07 08:02:11;;;;;;;4.28;2.65;;;19.40;99.90;;;;;;5034083;28;20831;-80
2023/06/07 08:04:38;;;;;;;4.30;2.78;;;19.50;99.90;;;;;;5023746;28;20467;-80
2023/06/07 08:07:06;;;;;;;5.68;2.72;;;19.50;99.90;;;;;;5005579;28;20102;-80
2023/06/07 08:09:33;;;;;;;10.23;4.10;;;19.60;99.90;;;;;;5016968;28;20113;-80
2023/06/07 08:12:00;;;;;;;5.50;3.10;;;19.60;99.90;;;;;;5016279;28;20044;-80
2023/06/07 08:14:27;;;;;;;6.72;3.55;;;19.50;99.90;;;;;;5015073;28;20139;-80
2023/06/07 08:16:55;;;;;;;5.07;3.38;;;19.60;99.90;;;;;;5037810;28;20044;-80
2023/06/07 08:19:22;;;;;;;5.25;3.08;;;19.60;99.90;;;;;;5030301;28;20159;-78
2023/06/07 08:21:50;;;;;;;6.97;2.53;;;19.90;99.90;;;;;;5022064;28;20095;-79
2023/06/07 08:24:18;;;;;;;3.78;2.35;;;19.70;99.90;;;;;;5021121;28;20044;-79
2023/06/07 08:26:47;;;;;;;4.80;3.13;;;19.70;99.90;;;;;;5029524;28;20043;-80
2023/06/07 08:29:15;;;;;;;6.38;2.58;;;19.80;99.90;;;;;;5024351;28;20058;-80
2023/06/07 08:31:43;;;;;;;3.40;1.77;;;19.80;99.90;;;;;;5015392;28;20056;-79
2023/06/07 08:34:11;;;;;;;6.88;2.95;;;20.00;99.90;;;;;;5016132;28;20621;-79
2023/06/07 08:36:42;;;;;;;3.47;2.63;;;20.10;99.90;;;;;;5021663;28;20051;-80
2023/06/07 08:39:09;;;;;;;5.85;4.05;;;20.10;99.90;;;;;;5032314;28;20454;-80
2023/06/07 08:41:36;;;;;;;5.25;4.53;;;20.20;99.90;;;;;;5015219;28;20209;-80
2023/06/07 08:44:04;;;;;;;5.78;4.63;;;20.30;99.90;;;;;;5015623;28;20149;-77
2023/06/07 08:46:31;;;;;;;8.57;4.53;;;20.30;99.90;;;;;;5031718;28;20051;-80
2023/06/07 08:49:02;;;;;;;7.82;4.30;;;20.30;99.90;;;;;;5030743;28;20087;-81
2023/06/07 08:51:36;;;;;;;6.03;4.00;;;20.40;99.90;;;;;;5018880;28;20040;-80
2023/06/07 08:54:04;;;;;;;4.70;3.50;;;20.50;99.90;;;;;;5044495;28;20044;-79
2023/06/07 08:56:32;;;;;;;5.43;3.78;;;20.60;99.90;;;;;;5026931;28;20093;-80
2023/06/07 08:59:03;;;;;;;6.25;5.05;;;20.60;99.90;;;;;;5020677;28;20503;-79
2023/06/07 09:01:35;;;;;;;6.53;3.90;;;20.50;99.90;;;;;;5027690;28;20079;-80
2023/06/07 09:04:06;;;;;;;6.82;4.60;;;20.60;99.90;;;;;;5032638;28;20048;-79
2023/06/07 09:06:33;;;;;;;6.35;4.38;;;20.50;99.90;;;;;;5037262;28;20052;-80
2023/06/07 09:09:03;;;;;;;11.32;5.38;;;20.50;99.90;;;;;;5018311;28;20056;-81
2023/06/07 09:11:32;;;;;;;6.25;4.32;;;20.50;99.90;;;;;;5032693;28;20392;-80
2023/06/07 09:14:00;;;;;;;7.45;5.25;;;20.50;99.90;;;;;;5037856;28;20079;-80
2023/06/07 09:16:28;;;;;;;6.65;5.10;;;20.60;99.90;;;;;;5027503;28;20052;-81
2023/06/07 09:18:56;;;;;;;9.35;5.15;;;20.70;99.90;;;;;;5016614;28;20743;-80
2023/06/07 09:21:26;;;;;;;5.63;4.55;;;20.70;99.90;;;;;;5031506;28;20051;-81
2023/06/07 09:23:56;;;;;;;9.90;5.28;;;20.70;99.90;;;;;;5033114;28;20044;-81
2023/06/07 09:26:36;;;;;;;7.22;5.15;;;20.60;99.90;;;;;;5019835;28;20101;-81
2023/06/07 09:29:08;;;;;;;5.53;4.43;;;20.60;99.90;;;;;;5023208;28;22124;-80
2023/06/07 09:31:37;;;;;;;;;;;20.70;99.90;;;;;;5005608;28;20048;-81
2023/06/07 09:34:22;;;;;;;5.63;4.57;;;20.70;99.90;;;;;;5025209;28;20006;-80
2023/06/07 09:36:58;;;;;;;7.65;4.00;;;20.70;99.90;;;;;;5036498;28;20052;-80
2023/06/07 09:39:28;;;;;;;7.10;3.65;;;20.70;99.90;;;;;;5019637;28;20054;-79
2023/06/07 09:41:56;;;;;;;6.80;4.40;;;20.80;99.90;;;;;;5022341;28;20064;-80
2023/06/07 09:44:28;;;;;;;7.28;4.43;;;20.80;99.90;;;;;;5031009;28;20399;-80
2023/06/07 09:46:56;;;;;;;;;;;20.80;99.90;;;;;;5018670;28;20086;-80
2023/06/07 09:49:31;;;;;;;7.30;4.20;;;20.80;99.90;;;;;;5026082;28;19927;-80
2023/06/07 09:52:11;;;;;;;6.60;3.97;;;20.80;99.90;;;;;;5044105;28;20146;-80
2023/06/07 09:54:44;;;;;;;4.60;3.53;;;20.80;99.90;;;;;;5038067;28;20048;-80
2023/06/07 09:57:32;;;;;;;5.20;3.90;;;20.80;99.90;;;;;;5013800;28;20140;-79
2023/06/07 10:02:39;;;;;;;7.20;4.30;;;21.00;99.90;;;;;;5034906;28;22361;-80
2023/06/07 10:05:06;;;;;;;7.45;4.10;;;21.10;99.90;;;;;;5020354;28;20823;-80
2023/06/07 10:07:44;;;;;;;5.07;3.83;;;21.30;99.90;;;;;;5030280;28;20078;-80
2023/06/07 10:10:14;;;;;;;5.88;4.05;;;21.40;99.90;;;;;;5028687;28;20052;-81
2023/06/07 10:12:44;;;;;;;6.93;3.90;;;21.50;99.90;;;;;;5036875;28;22286;-81
2023/06/07 10:15:15;;;;;;;5.40;3.40;;;21.60;99.90;;;;;;5020644;28;20052;-80
2023/06/07 10:18:21;;;;;;;7.38;4.38;;;21.60;99.90;;;;;;5056716;28;20033;-79
2023/06/07 10:21:21;;;;;;;7.10;4.20;;;21.60;99.70;;;;;;5030465;28;20106;-81
2023/06/07 10:23:55;;;;;;;7.47;4.05;;;21.60;99.90;;;;;;4989766;28;20057;-80
2023/06/07 10:26:42;;;;;;;5.85;3.60;;;21.70;99.90;;;;;;4991408;28;20499;-80
2023/06/07 10:29:15;;;;;;;6.15;3.90;;;21.80;99.90;;;;;;4965081;28;20156;-81
2023/06/07 10:32:27;;;;;;;6.25;5.43;;;21.90;99.90;;;;;;5020369;28;20056;-82
2023/06/07 10:34:55;;;;;;;5.22;4.20;;;21.90;99.90;;;;;;4992664;28;20076;-80
2023/06/07 10:37:24;;;;;;;7.00;4.63;;;21.90;99.90;;;;;;4973753;28;20494;-79
2023/06/07 10:39:51;;;;;;;6.78;3.50;;;21.90;99.90;;;;;;4962787;28;20041;-79
2023/06/07 10:42:19;;;;;;;6.88;3.60;;;21.90;99.90;;;;;;5004226;28;20025;-79
2023/06/07 10:44:46;;;;;;;7.50;4.55;;;22.00;99.90;;;;;;4987694;28;20045;-79
2023/06/07 10:47:22;;;;;;;6.60;3.80;;;22.00;99.90;;;;;;4991807;28;20115;-80
2023/06/07 10:49:50;;;;;;;7.40;4.05;;;22.00;99.90;;;;;;5006159;28;20053;-81
2023/06/07 10:52:18;;;;;;;6.47;4.28;;;22.00;99.20;;;;;;5022207;28;20109;-81
2023/06/07 10:54:46;;;;;;;4.93;3.88;;;22.10;99.30;;;;;;5012671;28;20060;-79
2023/06/07 10:59:42;;;;;;;6.85;4.85;;;22.40;99.60;;;;;;5007490;28;20062;-79
2023/06/07 11:02:22;;;;;;;8.88;4.50;;;22.40;98.70;;;;;;4986266;28;20057;-80
2023/06/07 11:11:00;;;;;;;7.55;4.30;;;22.60;98.10;;;;;;1757800;23;20333;-74
2023/06/07 11:13:43;;;;;;;;;;;22.60;99.60;;;;;;4860206;29;20052;-77
2023/06/07 11:16:23;;;;;;;7.03;4.28;;;22.50;97.30;;;;;;4869404;29;19931;-77
2023/06/07 11:18:56;;;;;;;6.88;4.05;;;22.40;98.40;;;;;;4869595;29;20049;-75
2023/06/07 11:21:27;;;;;;;7.88;4.47;;;22.20;98.10;;;;;;4868153;29;20683;-76
2023/06/07 11:24:13;;;;;;;7.30;4.57;;;22.30;99.20;;;;;;4861991;29;20320;-75
2023/06/07 11:26:40;;;;;;;4.05;3.65;;;22.20;98.10;;;;;;4860475;29;20135;-75
2023/06/07 11:29:08;;;;;;;5.45;3.72;;;22.20;98.00;;;;;;4858490;29;20048;-75
2023/06/07 11:31:36;;;;;;;4.53;4.05;;;22.30;98.60;;;;;;4858040;29;20511;-76
2023/06/07 11:34:03;;;;;;;6.88;4.20;;;22.30;99.40;;;;;;4860410;29;21560;-77
2023/06/07 11:36:31;;;;;;;5.10;4.00;;;22.40;97.60;;;;;;4859970;29;20054;-75
2023/06/07 11:39:02;;;;;;;5.88;4.20;;;22.60;98.60;;;;;;4852267;29;20628;-77
2023/06/07 11:41:29;;;;;;;5.38;4.20;;;22.60;99.10;;;;;;4844314;29;20569;-76
2023/06/07 11:43:59;;;;;;;6.00;4.28;;;22.60;97.20;;;;;;4873849;29;20098;-74
2023/06/07 11:46:30;;;;;;;5.55;4.20;;;22.70;98.00;;;;;;4871528;29;20057;-77
2023/06/07 11:49:09;;;;;;;6.07;4.40;;;22.80;96.40;;;;;;4847590;29;20059;-75
2023/06/07 11:51:38;;;;;;;5.97;4.07;;;22.70;96.40;;;;;;4867936;29;20052;-74
2023/06/07 11:54:05;;;;;;;4.18;3.47;;;22.90;98.00;;;;;;4863055;29;20077;-76
2023/06/07 11:56:36;;;;;;;6.07;3.40;;;22.80;96.30;;;;;;4865871;29;20493;-76
2023/06/07 11:59:04;;;;;;;4.13;3.63;;;22.80;96.70;;;;;;4846312;29;20499;-78
2023/06/07 12:01:33;;;;;;;7.40;3.70;;;22.70;96.00;;;;;;4851373;29;20049;-78
2023/06/07 12:04:00;;;;;;;7.18;3.55;;;22.60;96.80;;;;;;4840327;29;20136;-76
2023/06/07 12:06:28;;;;;;;5.18;3.60;;;22.50;97.00;;;;;;4854118;29;20902;-76
2023/06/07 12:08:55;;;;;;;5.95;4.07;;;22.40;97.40;;;;;;4847149;29;20053;-78
2023/06/07 12:11:23;;;;;;;4.72;3.85;;;22.40;97.00;;;;;;4844223;29;20056;-77
2023/06/07 12:13:59;;;;;;;4.25;3.50;;;22.40;97.50;;;;;;4847838;29;20142;-77
2023/06/07 12:16:27;;;;;;;5.35;3.92;;;22.40;96.90;;;;;;4848372;29;22410;-75
2023/06/07 12:18:55;;;;;;;5.80;3.75;;;22.40;96.80;;;;;;4861125;29;20570;-75
2023/06/07 12:21:24;;;;;;;5.90;3.60;;;22.50;96.40;;;;;;4874716;29;20252;-77
2023/06/07 12:23:52;;;;;;;6.05;3.63;;;22.50;97.50;;;;;;4858175;29;20048;-75
2023/06/07 12:26:21;;;;;;;8.80;4.35;;;22.50;96.70;;;;;;4862679;29;20052;-77
2023/06/07 12:28:50;;;;;;;8.15;4.43;;;22.40;95.80;;;;;;4833436;29;20829;-75
2023/06/07 12:31:23;;;;;;;6.28;4.07;;;22.50;96.20;;;;;;4847348;29;20052;-77
2023/06/07 12:34:01;;;;;;;5.32;4.45;;;22.60;96.30;;;;;;4874113;29;20610;-77
2023/06/07 12:36:33;;;;;;;7.03;4.63;;;22.70;96.60;;;;;;4865472;29;20397;-78
2023/06/07 12:39:03;;;;;;;5.22;4.55;;;22.70;95.90;;;;;;4845538;29;20124;-78
2023/06/07 12:41:32;;;;;;;6.93;4.72;;;22.70;94.90;;;;;;4847910;29;20122;-78
2023/06/07 12:44:03;;;;;;;7.07;5.15;;;22.70;94.70;;;;;;4831432;29;20048;-77
2023/06/07 12:46:30;;;;;;;6.40;4.30;;;22.80;96.70;;;;;;4864414;29;20652;-76
2023/06/07 12:48:57;;;;;;;6.55;4.63;;;22.70;95.90;;;;;;4845896;29;20061;-77
2023/06/07 12:51:25;;;;;;;5.40;4.55;;;22.70;96.00;;;;;;4853406;29;20059;-76
2023/06/07 12:53:53;;;;;;;6.45;5.32;;;22.70;96.40;;;;;;4871355;29;20424;-75
2023/06/07 12:56:21;;;;;;;6.88;4.53;;;22.60;96.60;;;;;;4860465;29;22314;-76
2023/06/07 12:58:49;;;;;;;6.03;5.25;;;22.70;97.30;;;;;;4858064;29;20572;-77
2023/06/07 13:01:17;;;;;;;5.95;4.40;;;22.70;96.60;;;;;;4848636;29;20123;-76
2023/06/07 13:03:45;;;;;;;5.45;4.95;;;22.60;97.00;;;;;;4871941;29;20084;-77
2023/06/07 13:06:12;;;;;;;7.20;4.90;;;22.60;96.40;;;;;;4839970;29;20759;-78
2023/06/07 13:08:41;;;;;;;7.05;4.90;;;22.70;96.40;;;;;;4854446;29;20176;-76
2023/06/07 13:11:09;;;;;;;5.68;4.80;;;22.60;96.00;;;;;;4855889;29;20461;-77
2023/06/07 13:13:36;;;;;;;5.82;4.70;;;22.60;96.50;;;;;;4833152;29;20698;-77